Terminal Aerodrome Forecast
Issued by NWS

Home | Current Version | Previous Version | Text Only | Print | Product List | Glossary On
Versions: 1 2 3 4 5 6 7 8 9 10 11 12 13
097
FTUS45 KPSR 252114 AAA
TAFBLH
TAF AMD
KBLH 252114Z 2521/2618 22018G28KT P6SM SKC
     FM260900 21010KT P6SM SKC
     FM261300 19006KT P6SM SKC=

USA.gov is the U.S. government's official web portal to all federal, state and local government web resources and services.